Air Resources Laboratory banner image
Air Resources Laboratory web site National Oceanic and Atmospheric Administration (NOAA)

ga metar


KABY 140353Z AUTO 22005KT 10SM CLR 07/M01 A2999 RMK AO2 SLP156 T00671011=
KAGS 140353Z 22003KT 10SM CLR 03/M06 A2987 RMK AO2 SLP116 T00331061=
KAHN 140351Z AUTO 23004KT 10SM CLR 01/M07 A2984 RMK AO2 SLP111 T00111072=
KAMG 140353Z AUTO 23008KT 10SM CLR 07/M02 A2996 RMK AO2 SLP146 T00671017=
KATL 140352Z 25011KT 10SM FEW250 07/M06 A2986 RMK AO2 SLP116 T00671061=
KAYS 140355Z AUTO 25007KT 10SM CLR 06/M01 A2997 RMK AO2 T00641010=
KBQK 140355Z AUTO 23008KT 10SM CLR 06/M01 A2998 RMK AO2=
KCCO 140355Z AUTO 24005KT 10SM CLR 05/M07 A2988 RMK AO2 T00521071=
KCSG 140351Z AUTO 26007KT 10SM CLR 07/M04 A2993 RMK AO2 SLP135 T00721039 $=
KDNL 140353Z AUTO 22005KT 10SM CLR 07/M07 A2987 RMK AO2 SLP115 T00671072=
KDNN 140355Z AUTO 15003KT 10SM CLR 02/M05 A2988 RMK AO2=
KFFC 140353Z AUTO VRB04KT 10SM CLR 07/M06 A2988 RMK AO2 SLP125 T00671061=
KFTY 140353Z 00000KT 10SM CLR 03/M06 A2986 RMK AO2 SLP117 T00331056=
KGVL 140353Z AUTO 28007KT 10SM CLR 04/M07 A2984 RMK AO2 SLP108 T00391072=
KLGC 140355Z AUTO 20003KT 10SM CLR 01/M03 A2991 RMK AO2 T00121033=
KLHW 140356Z AUTO 00000KT 10SM CLR 03/M02 A2993 RMK AO2 SLP139 T00271017 $=
KLSF 140356Z AUTO 21005KT 10SM CLR 08/M03 A2994 RMK AO2 SLP145 T00751034=
KLZU 140356Z AUTO 27005KT 10SM CLR 04/M07 A2984 RMK AO2 SLP122 T00441072=
KMCN 140353Z AUTO 23006KT 10SM CLR 06/M06 A2990 RMK AO2 SLP125 T00611056=
KMGE 140356Z 25005KT 10SM CLR 04/M07 A2985 RMK AO2A SLP116 T00431072 $=
KMGR 140355Z AUTO 25003KT 10SM CLR 06/00 A2999 RMK AO2=
KOPN 140355Z AUTO 24007KT 10SM CLR 06/M08 A2991 RMK AO2=
KPDK 140353Z 24008KT 10SM CLR 04/M07 A2985 RMK AO2 SLP120 T00441067=
KRMG 140353Z AUTO 24004KT 10SM CLR 01/M04 A2986 RMK AO2 SLP112 T00111044=
KRYY 140348Z AUTO 24005KT 10SM CLR 03/M06 A2986 RMK AO2 SLP837 T00331061
 400891028=
KSAV 140353Z 23006KT 10SM CLR 06/M03 A2995 RMK AO2 SLP142 T00611033=
KSSI 140353Z AUTO 23011KT 10SM CLR 09/01 A2997 RMK AO2 SLP151 T00890011=
KSVN 140356Z 22006KT 10SM CLR 06/M03 A2993 RMK AO2A SLPNO ALSTG ESTMD T00601029
 $=
KVAD 140356Z AUTO 23008KT 10SM CLR 07/01 A2997 RMK AO2 SLP152 T00740010 $=
KVDI 140355Z AUTO 23005KT 10SM CLR 05/M02 A2994 RMK AO2=
KVLD 140353Z 22003KT 10SM CLR 06/01 A2999 RMK AO2 SLP165 T00610011=
KVPC 140353Z AUTO 00000KT 10SM CLR M02/M04 A2988 RMK AO2 SLP118 T10171039 $=
KWDR 140355Z AUTO 25004KT 10SM CLR 04/M08 A2987 RMK AO1=
KWRB 140356Z 24007KT 10SM CLR 08/M05 A2990 RMK AO2A SLP129 T00761055=